createdAt,value
2017-12-13T00:00:03.783Z,2.55
2017-12-13T00:01:30.953Z,2.55
2017-12-13T00:02:58.034Z,2.56
2017-12-13T00:04:26.394Z,2.55
2017-12-13T00:05:53.645Z,2.56
2017-12-13T00:07:20.728Z,2.57
2017-12-13T00:08:46.957Z,2.59
2017-12-13T00:10:15.178Z,2.59
2017-12-13T00:11:41.302Z,2.60
2017-12-13T00:13:08.584Z,2.59
2017-12-13T00:14:35.658Z,2.60
2017-12-13T00:16:03.939Z,2.61
2017-12-13T00:17:31.014Z,2.63
2017-12-13T00:18:58.499Z,2.63
2017-12-13T00:20:24.709Z,2.65
2017-12-13T00:21:53.029Z,2.65
2017-12-13T00:23:19.179Z,2.64
2017-12-13T00:24:46.576Z,2.65
2017-12-13T00:26:13.791Z,2.65
2017-12-13T00:27:41.975Z,2.66
2017-12-13T00:29:08.151Z,2.67
2017-12-13T00:30:36.036Z,2.68
2017-12-13T00:32:03.060Z,2.67
2017-12-13T00:33:29.625Z,2.68
2017-12-13T00:34:56.866Z,2.67
2017-12-13T00:36:23.175Z,2.62
2017-12-13T00:37:50.284Z,2.64
2017-12-13T00:39:18.374Z,2.65
2017-12-13T00:40:44.520Z,2.68
2017-12-13T00:42:11.788Z,2.69
2017-12-13T00:43:40.090Z,2.67
2017-12-13T00:45:07.246Z,2.68
2017-12-13T00:46:33.452Z,2.70
2017-12-13T00:48:00.802Z,2.73
2017-12-13T00:49:28.989Z,2.72
2017-12-13T00:50:55.258Z,2.73
2017-12-13T00:52:23.499Z,2.74
2017-12-13T00:53:50.879Z,2.75
2017-12-13T00:55:17.882Z,2.74
2017-12-13T00:56:44.245Z,2.73
2017-12-13T00:58:11.313Z,2.73
2017-12-13T00:59:38.404Z,2.74
2017-12-13T01:01:05.470Z,2.72
2017-12-13T01:02:33.660Z,2.71
2017-12-13T01:03:59.959Z,2.73
2017-12-13T01:05:27.295Z,2.75
2017-12-13T01:06:54.493Z,2.77
2017-12-13T01:08:22.666Z,2.80
2017-12-13T01:09:48.889Z,2.75
2017-12-13T01:11:17.277Z,2.74
2017-12-13T01:12:44.414Z,2.74
2017-12-13T01:14:11.615Z,2.72
2017-12-13T01:15:37.860Z,2.74
2017-12-13T01:17:05.791Z,2.74
2017-12-13T01:18:33.207Z,2.76
2017-12-13T01:19:59.455Z,2.76
2017-12-13T01:21:27.785Z,2.78
2017-12-13T01:22:54.042Z,2.74
2017-12-13T01:24:21.269Z,2.73
2017-12-13T01:25:48.496Z,2.74
2017-12-13T01:27:15.753Z,2.78
2017-12-13T01:28:43.832Z,2.80
2017-12-13T01:30:09.898Z,2.81
2017-12-13T01:31:38.014Z,2.84
2017-12-13T01:33:05.424Z,2.86
2017-12-13T01:34:31.472Z,2.87
2017-12-13T01:35:58.716Z,2.88
2017-12-13T01:37:26.844Z,2.88
2017-12-13T01:38:54.204Z,2.86
2017-12-13T01:40:20.331Z,2.87
2017-12-13T01:41:48.454Z,2.88
2017-12-13T01:43:14.896Z,2.83
2017-12-13T01:44:42.089Z,2.83
2017-12-13T01:46:10.246Z,2.81
2017-12-13T01:47:36.337Z,2.83
2017-12-13T01:49:03.709Z,2.84
2017-12-13T01:50:30.966Z,2.86
2017-12-13T01:51:59.069Z,2.85
2017-12-13T01:53:26.274Z,2.86
2017-12-13T01:54:52.618Z,2.86
2017-12-13T01:56:20.778Z,2.86
2017-12-13T01:57:47.050Z,2.81
2017-12-13T01:59:15.344Z,2.82
2017-12-13T02:00:41.535Z,2.84
2017-12-13T02:02:08.619Z,2.83
2017-12-13T02:03:36.580Z,2.83
2017-12-13T02:05:03.981Z,2.82
2017-12-13T02:06:31.089Z,2.81
2017-12-13T02:07:58.216Z,2.82
2017-12-13T02:09:24.611Z,2.82
2017-12-13T02:10:51.912Z,2.82
2017-12-13T02:12:18.978Z,2.80
2017-12-13T02:13:46.147Z,2.82
2017-12-13T02:15:13.447Z,2.85
2017-12-13T02:16:40.544Z,2.88
2017-12-13T02:18:08.777Z,2.89
2017-12-13T02:19:34.699Z,2.92
2017-12-13T02:21:01.861Z,2.93
2017-12-13T02:22:29.196Z,2.92
2017-12-13T02:26:51.807Z,2.92
2017-12-13T02:28:17.878Z,2.94
2017-12-13T02:29:45.088Z,2.96
2017-12-13T02:31:13.214Z,2.96
2017-12-13T02:32:39.410Z,2.96
2017-12-13T02:34:07.599Z,2.97
2017-12-13T02:35:34.502Z,2.98
2017-12-13T02:37:01.726Z,2.98
2017-12-13T02:38:28.096Z,3.00
2017-12-13T02:39:56.490Z,3.00
2017-12-13T02:41:23.717Z,3.02
2017-12-13T02:42:50.946Z,3.03
2017-12-13T02:44:17.157Z,3.02
2017-12-13T02:45:45.477Z,3.01
2017-12-13T02:47:11.798Z,3.00
2017-12-13T02:48:39.926Z,2.99
2017-12-13T02:50:06.213Z,2.99
2017-12-13T02:51:33.441Z,2.99
2017-12-13T02:53:00.627Z,2.99
2017-12-13T02:54:27.913Z,2.99
2017-12-13T02:55:55.098Z,2.98
2017-12-13T02:57:23.342Z,2.98
2017-12-13T02:58:50.618Z,2.98
2017-12-13T03:00:16.943Z,2.98
2017-12-13T03:01:43.989Z,2.98
2017-12-13T03:03:11.102Z,2.97
2017-12-13T03:04:38.488Z,3.19
2017-12-13T03:06:05.616Z,2.95
2017-12-13T03:07:32.945Z,2.95
2017-12-13T03:09:00.053Z,2.95
2017-12-13T03:10:27.224Z,2.96
2017-12-13T03:11:54.551Z,2.97
2017-12-13T03:13:21.751Z,2.96
2017-12-13T03:14:50.018Z,2.96
2017-12-13T03:16:17.179Z,2.97
2017-12-13T03:17:43.527Z,2.96
2017-12-13T03:19:10.826Z,2.96
2017-12-13T03:20:38.037Z,2.96
2017-12-13T03:22:05.091Z,2.95
2017-12-13T03:23:32.373Z,2.94
2017-12-13T03:25:00.516Z,2.92
2017-12-13T03:26:26.835Z,2.92
2017-12-13T03:27:54.876Z,2.94
2017-12-13T03:29:21.164Z,2.93
2017-12-13T03:30:48.288Z,2.93
2017-12-13T03:32:16.527Z,2.94
2017-12-13T03:33:43.790Z,2.94
2017-12-13T03:35:11.040Z,2.96
2017-12-13T03:36:37.194Z,2.97
2017-12-13T03:38:05.357Z,2.97
2017-12-13T03:39:31.629Z,2.97
2017-12-13T03:40:58.830Z,2.97
2017-12-13T03:42:26.051Z,2.94
2017-12-13T03:43:54.356Z,2.94
2017-12-13T03:45:21.591Z,2.95
2017-12-13T03:46:48.850Z,2.95
2017-12-13T03:48:16.229Z,2.96
2017-12-13T03:49:43.430Z,2.97
2017-12-13T03:51:09.526Z,2.94
2017-12-13T03:52:37.756Z,2.95
2017-12-13T03:54:04.778Z,2.96
2017-12-13T03:55:31.854Z,2.96
2017-12-13T03:56:59.265Z,2.98
2017-12-13T03:58:25.364Z,3.00
2017-12-13T03:59:52.659Z,3.02
2017-12-13T04:01:19.855Z,3.01
2017-12-13T04:02:47.235Z,3.01
2017-12-13T04:04:14.432Z,3.02
2017-12-13T04:05:41.677Z,3.02
2017-12-13T04:07:08.911Z,3.02
2017-12-13T04:08:36.990Z,3.01
2017-12-13T04:10:04.416Z,3.01
2017-12-13T04:11:30.454Z,3.01
2017-12-13T04:12:58.824Z,3.02
2017-12-13T04:14:24.970Z,2.99
2017-12-13T04:15:53.226Z,2.99
2017-12-13T04:17:19.629Z,2.96
2017-12-13T04:18:46.602Z,2.96
2017-12-13T04:20:13.883Z,2.97
2017-12-13T04:21:41.163Z,2.98
2017-12-13T04:23:08.537Z,2.98
2017-12-13T04:24:35.620Z,2.98
2017-12-13T04:26:02.869Z,2.99
2017-12-13T04:27:31.106Z,3.00
2017-12-13T04:28:57.398Z,3.00
2017-12-13T04:30:25.758Z,2.99
2017-12-13T04:31:52.709Z,2.98
2017-12-13T04:33:19.967Z,2.97
2017-12-13T04:34:46.237Z,2.97
2017-12-13T04:36:14.459Z,2.98
2017-12-13T04:37:40.835Z,2.99
2017-12-13T04:39:08.010Z,2.99
2017-12-13T04:40:34.961Z,3.00
2017-12-13T04:42:02.208Z,3.00
2017-12-13T04:43:30.469Z,3.01
2017-12-13T04:44:56.935Z,3.02
2017-12-13T04:46:25.110Z,3.02
2017-12-13T04:47:51.310Z,3.01
2017-12-13T04:49:19.228Z,3.00
2017-12-13T04:50:45.550Z,2.99
2017-12-13T04:52:12.766Z,2.96
2017-12-13T04:53:41.025Z,2.96
2017-12-13T04:55:07.136Z,2.95
2017-12-13T04:56:35.420Z,2.92
2017-12-13T04:58:02.752Z,2.90
2017-12-13T04:59:28.967Z,2.88
2017-12-13T05:00:56.168Z,2.85
2017-12-13T05:02:23.248Z,2.83
2017-12-13T05:03:50.598Z,2.80
2017-12-13T05:05:17.794Z,2.78
2017-12-13T05:06:44.945Z,2.75
2017-12-13T05:08:13.155Z,2.73
2017-12-13T05:09:39.199Z,2.71
2017-12-13T05:11:06.290Z,2.69
2017-12-13T05:12:33.620Z,2.68
2017-12-13T05:14:00.903Z,2.66
2017-12-13T05:15:29.222Z,2.63
2017-12-13T05:16:56.490Z,2.62
2017-12-13T05:18:23.797Z,2.59
2017-12-13T05:19:50.821Z,2.57
2017-12-13T05:21:17.012Z,2.55
2017-12-13T05:22:44.239Z,2.54
2017-12-13T05:24:11.418Z,2.52
2017-12-13T05:25:39.727Z,2.50
2017-12-13T05:27:08.897Z,2.47
2017-12-13T05:28:34.070Z,2.45
2017-12-13T05:30:01.352Z,2.44
2017-12-13T05:31:28.419Z,2.43
2017-12-13T05:32:54.662Z,2.40
2017-12-13T05:34:21.959Z,2.37
2017-12-13T05:35:49.010Z,2.34
2017-12-13T05:37:16.344Z,2.32
2017-12-13T05:38:44.611Z,2.31
2017-12-13T05:40:11.803Z,2.32
2017-12-13T05:41:38.836Z,2.30
2017-12-13T05:43:06.185Z,2.29
2017-12-13T05:44:33.294Z,2.28
2017-12-13T05:46:00.478Z,2.26
2017-12-13T05:47:26.718Z,2.23
2017-12-13T05:48:54.094Z,2.22
2017-12-13T05:50:22.115Z,2.23
2017-12-13T05:51:48.402Z,2.22
2017-12-13T05:53:15.559Z,2.23
2017-12-13T05:54:43.863Z,2.19
2017-12-13T05:56:10.180Z,2.18
2017-12-13T05:57:37.252Z,2.17
2017-12-13T05:59:05.241Z,2.17
2017-12-13T06:00:32.469Z,2.19
2017-12-13T06:01:59.660Z,2.19
2017-12-13T06:03:25.933Z,2.18
2017-12-13T06:04:53.057Z,2.15
2017-12-13T06:06:21.249Z,2.13
2017-12-13T06:07:47.308Z,2.11
2017-12-13T06:09:14.365Z,2.11
2017-12-13T06:10:41.688Z,2.09
2017-12-13T06:12:09.824Z,2.08
2017-12-13T06:13:35.858Z,2.09
2017-12-13T06:15:02.953Z,2.08
2017-12-13T06:16:31.067Z,2.08
2017-12-13T06:17:58.470Z,2.09
2017-12-13T06:19:24.632Z,2.08
2017-12-13T06:20:52.922Z,2.07
2017-12-13T06:22:18.828Z,2.06
2017-12-13T06:23:46.135Z,2.06
2017-12-13T06:25:13.306Z,2.05
2017-12-13T06:26:40.612Z,2.04
2017-12-13T06:28:07.932Z,2.04
2017-12-13T06:29:36.034Z,2.06
2017-12-13T06:31:03.189Z,2.05
2017-12-13T06:32:29.218Z,2.04
2017-12-13T06:33:57.557Z,2.02
2017-12-13T06:35:23.469Z,2.02
2017-12-13T06:36:51.644Z,2.00
2017-12-13T06:38:19.093Z,2.01
2017-12-13T06:39:45.376Z,2.01
2017-12-13T06:41:12.520Z,2.02
2017-12-13T06:42:40.620Z,2.03
2017-12-13T06:44:06.774Z,2.01
2017-12-13T06:45:34.973Z,2.00
2017-12-13T06:47:00.964Z,1.98
2017-12-13T06:48:28.080Z,1.98
2017-12-13T06:49:56.317Z,1.98
2017-12-13T06:51:23.582Z,1.99
2017-12-13T06:52:49.520Z,2.00
2017-12-13T06:54:17.785Z,2.01
2017-12-13T06:55:44.666Z,2.02
2017-12-13T06:57:11.932Z,2.02
2017-12-13T06:58:37.965Z,2.02
2017-12-13T07:00:05.110Z,2.01
2017-12-13T07:01:33.216Z,2.02
2017-12-13T07:03:00.471Z,2.03
2017-12-13T07:04:27.583Z,2.02
2017-12-13T07:05:53.691Z,2.03
2017-12-13T07:07:20.982Z,2.02
2017-12-13T07:08:49.187Z,2.01
2017-12-13T07:10:16.289Z,2.02
2017-12-13T07:11:42.550Z,2.01
2017-12-13T07:13:10.647Z,2.01
2017-12-13T07:14:36.757Z,2.00
2017-12-13T07:16:05.060Z,1.98
2017-12-13T07:17:31.393Z,1.99
2017-12-13T07:18:58.486Z,1.99
2017-12-13T07:20:26.733Z,1.97
2017-12-13T07:21:52.949Z,1.97
2017-12-13T07:23:20.253Z,1.96
2017-12-13T07:24:48.490Z,1.95
2017-12-13T07:26:15.587Z,1.93
2017-12-13T07:27:41.833Z,1.92
2017-12-13T07:29:08.789Z,1.92
2017-12-13T07:30:35.929Z,1.93
2017-12-13T07:32:04.330Z,1.91
2017-12-13T07:33:30.435Z,1.91
2017-12-13T07:34:57.586Z,1.92
2017-12-13T07:36:24.904Z,1.94
2017-12-13T07:37:52.125Z,1.95
2017-12-13T07:39:20.210Z,1.95
2017-12-13T07:40:46.591Z,1.93
2017-12-13T07:42:14.899Z,1.95
2017-12-13T07:43:42.044Z,1.96
2017-12-13T07:45:08.154Z,1.96
2017-12-13T07:46:35.306Z,1.96
2017-12-13T07:48:03.576Z,1.97
2017-12-13T07:49:29.737Z,1.96
2017-12-13T07:50:57.839Z,1.97
2017-12-13T07:52:25.098Z,1.97
2017-12-13T07:53:52.136Z,1.98
2017-12-13T07:55:18.542Z,1.97
2017-12-13T07:56:45.443Z,1.98
2017-12-13T07:58:13.498Z,1.96
2017-12-13T07:59:40.618Z,1.96
2017-12-13T08:01:06.793Z,1.97
2017-12-13T08:02:35.013Z,1.97
2017-12-13T08:04:02.250Z,1.96
2017-12-13T08:05:29.374Z,1.96
2017-12-13T08:06:55.610Z,1.96
2017-12-13T08:08:23.626Z,1.98
2017-12-13T08:09:50.984Z,1.98
2017-12-13T08:11:18.220Z,1.99
2017-12-13T08:12:45.290Z,1.98
2017-12-13T08:14:12.227Z,2.00
2017-12-13T08:15:38.279Z,2.02
2017-12-13T08:17:06.385Z,2.03
2017-12-13T08:18:33.590Z,2.03
2017-12-13T08:19:59.802Z,2.02
2017-12-13T08:21:28.048Z,2.04
2017-12-13T08:22:55.193Z,2.05
2017-12-13T08:24:22.578Z,2.06
2017-12-13T08:25:49.802Z,2.07
2017-12-13T08:27:16.096Z,2.07
2017-12-13T08:28:44.212Z,2.07
2017-12-13T08:30:11.225Z,2.10
2017-12-13T08:31:37.530Z,2.13
2017-12-13T08:33:04.773Z,2.15
2017-12-13T08:34:32.728Z,2.16
2017-12-13T08:35:59.908Z,2.18
2017-12-13T08:37:26.054Z,2.20
2017-12-13T08:38:53.275Z,2.22
2017-12-13T08:40:20.537Z,2.23
2017-12-13T08:41:48.733Z,2.26
2017-12-13T08:43:14.695Z,2.28
2017-12-13T08:44:41.933Z,2.30
2017-12-13T08:46:09.184Z,2.30
2017-12-13T08:47:37.350Z,2.32
2017-12-13T08:49:04.625Z,2.34
2017-12-13T08:50:31.706Z,2.36
2017-12-13T08:51:57.613Z,2.38
2017-12-13T08:53:25.816Z,2.40
2017-12-13T08:54:51.937Z,2.41
2017-12-13T08:56:20.187Z,2.42
2017-12-13T08:57:47.459Z,2.42
2017-12-13T08:59:14.804Z,2.41
2017-12-13T09:00:41.935Z,2.42
2017-12-13T09:02:07.899Z,2.41
2017-12-13T09:03:34.994Z,2.40
2017-12-13T09:05:03.266Z,2.41
2017-12-13T09:06:30.495Z,2.41
2017-12-13T09:07:56.564Z,2.40
2017-12-13T09:09:24.749Z,2.40
2017-12-13T09:10:51.952Z,2.42
2017-12-13T09:12:17.965Z,2.42
2017-12-13T09:13:46.310Z,2.44
2017-12-13T09:15:12.353Z,2.43
2017-12-13T09:16:40.575Z,2.43
2017-12-13T09:18:06.648Z,2.42
2017-12-13T09:19:33.855Z,2.41
2017-12-13T09:21:01.235Z,2.40
2017-12-13T09:22:29.236Z,2.40
2017-12-13T09:23:55.171Z,2.42
2017-12-13T09:25:23.331Z,2.44
2017-12-13T09:26:49.416Z,2.44
2017-12-13T09:28:17.560Z,2.44
2017-12-13T09:29:43.692Z,2.45
2017-12-13T09:31:11.037Z,2.45
2017-12-13T09:32:37.993Z,2.46
2017-12-13T09:34:05.961Z,2.47
2017-12-13T09:35:32.134Z,2.48
2017-12-13T09:36:59.444Z,2.47
2017-12-13T09:38:26.579Z,2.47
2017-12-13T09:39:53.811Z,2.48
2017-12-13T09:41:20.756Z,2.47
2017-12-13T09:42:48.950Z,2.48
2017-12-13T09:44:16.210Z,2.47
2017-12-13T09:45:43.307Z,2.48
2017-12-13T09:47:09.490Z,2.47
2017-12-13T09:48:37.463Z,2.47
2017-12-13T09:50:04.894Z,2.46
2017-12-13T09:51:32.175Z,2.46
2017-12-13T09:52:58.405Z,2.48
2017-12-13T09:54:26.774Z,2.50
2017-12-13T09:55:53.020Z,2.51
2017-12-13T09:57:21.293Z,2.51
2017-12-13T09:58:48.471Z,2.51
2017-12-13T10:00:14.742Z,2.52
2017-12-13T10:01:42.760Z,2.53
2017-12-13T10:03:09.159Z,2.55
2017-12-13T10:04:37.241Z,2.54
2017-12-13T10:06:03.504Z,2.54
2017-12-13T10:07:31.773Z,2.55
2017-12-13T10:08:59.118Z,2.57
2017-12-13T10:10:26.307Z,2.59
2017-12-13T10:11:53.407Z,2.59
2017-12-13T10:13:19.656Z,2.61
2017-12-13T10:14:46.900Z,2.64
2017-12-13T10:16:14.246Z,2.65
2017-12-13T10:17:41.563Z,2.68
2017-12-13T10:19:09.697Z,2.70
2017-12-13T10:20:35.791Z,2.72
2017-12-13T10:22:04.071Z,2.74
2017-12-13T10:23:30.343Z,2.77
2017-12-13T10:24:58.741Z,2.80
2017-12-13T10:26:27.732Z,2.82
2017-12-13T10:27:53.194Z,2.85
2017-12-13T10:29:19.389Z,2.87
2017-12-13T10:30:47.653Z,2.90
2017-12-13T10:32:14.868Z,2.92
2017-12-13T10:33:41.934Z,2.93
2017-12-13T10:35:09.079Z,2.95
2017-12-13T10:36:35.319Z,2.97
2017-12-13T10:38:03.592Z,3.00
2017-12-13T10:39:29.834Z,3.03
2017-12-13T10:40:57.005Z,3.06
2017-12-13T10:42:24.361Z,3.07
2017-12-13T10:43:52.599Z,3.07
2017-12-13T10:45:18.932Z,3.10
2017-12-13T10:46:47.054Z,3.12
2017-12-13T10:48:14.051Z,3.15
2017-12-13T10:49:40.346Z,3.19
2017-12-13T10:51:07.383Z,3.21
2017-12-13T10:52:34.614Z,3.24
2017-12-13T10:54:01.892Z,3.25
2017-12-13T10:55:29.170Z,3.28
2017-12-13T10:56:57.278Z,3.32
2017-12-13T10:58:24.529Z,3.35
2017-12-13T10:59:51.798Z,3.37
2017-12-13T11:01:18.023Z,3.39
2017-12-13T11:02:45.217Z,3.42
2017-12-13T11:04:12.528Z,3.44
2017-12-13T11:05:40.788Z,3.47
2017-12-13T11:07:06.983Z,3.47
2017-12-13T11:08:35.302Z,3.47
2017-12-13T11:10:01.504Z,3.48
2017-12-13T11:11:29.710Z,3.50
2017-12-13T11:12:56.033Z,3.51
2017-12-13T11:14:24.371Z,3.52
2017-12-13T11:15:51.696Z,3.53
2017-12-13T11:17:17.949Z,3.54
2017-12-13T11:18:46.340Z,3.55
2017-12-13T11:20:12.461Z,3.56
2017-12-13T11:21:39.704Z,3.59
2017-12-13T11:23:06.723Z,3.61
2017-12-13T11:24:35.054Z,3.63
2017-12-13T11:26:02.364Z,3.64
2017-12-13T11:27:28.613Z,3.63
2017-12-13T11:28:56.933Z,3.62
2017-12-13T11:30:23.305Z,3.59
2017-12-13T11:31:51.624Z,3.58
2017-12-13T11:33:18.700Z,3.59
2017-12-13T11:34:44.846Z,3.63
2017-12-13T11:36:13.017Z,3.67
2017-12-13T11:37:39.326Z,3.72
2017-12-13T11:39:07.593Z,3.78
2017-12-13T11:40:33.886Z,3.85
2017-12-13T11:42:02.260Z,3.91
2017-12-13T11:43:28.476Z,3.93
2017-12-13T11:44:56.694Z,3.96
2017-12-13T11:46:22.897Z,3.98
2017-12-13T11:47:50.330Z,4.01
2017-12-13T11:49:17.708Z,4.04
2017-12-13T11:50:44.849Z,4.07
2017-12-13T11:52:12.024Z,4.06
2017-12-13T11:53:39.395Z,4.05
2017-12-13T11:55:06.557Z,4.04
2017-12-13T11:56:33.798Z,4.03
2017-12-13T11:58:02.071Z,4.01
2017-12-13T11:59:28.506Z,3.99
2017-12-13T12:00:56.742Z,3.97
2017-12-13T12:02:23.119Z,3.95
2017-12-13T12:03:50.377Z,3.94
2017-12-13T12:05:17.787Z,3.94
2017-12-13T12:06:45.065Z,3.94
2017-12-13T12:08:13.278Z,3.97
2017-12-13T12:09:39.435Z,3.99
2017-12-13T12:11:06.729Z,4.00
2017-12-13T12:12:34.126Z,4.02
2017-12-13T12:14:02.540Z,4.01
2017-12-13T12:15:28.722Z,4.01
2017-12-13T12:16:56.651Z,3.98
2017-12-13T12:18:24.178Z,3.98
2017-12-13T12:19:51.279Z,3.97
2017-12-13T12:21:17.635Z,3.96
2017-12-13T12:22:45.546Z,3.95
2017-12-13T12:24:11.822Z,3.92
2017-12-13T12:25:39.892Z,3.90
2017-12-13T12:27:06.104Z,3.87
2017-12-13T12:28:33.330Z,3.86
2017-12-13T12:30:01.605Z,3.85
2017-12-13T12:31:27.774Z,3.82
2017-12-13T12:32:54.891Z,3.81
2017-12-13T12:34:23.304Z,3.80
2017-12-13T12:35:50.622Z,3.78
2017-12-13T12:37:16.954Z,3.76
2017-12-13T12:38:45.171Z,3.76
2017-12-13T12:40:12.530Z,3.75
2017-12-13T12:41:39.591Z,3.73
2017-12-13T12:43:06.437Z,3.73
2017-12-13T12:44:33.746Z,3.73
2017-12-13T12:46:00.062Z,3.74
2017-12-13T12:47:28.232Z,3.76
2017-12-13T12:48:55.431Z,3.77
2017-12-13T12:50:21.524Z,3.79
2017-12-13T12:51:49.638Z,3.78
2017-12-13T12:53:16.786Z,3.77
2017-12-13T12:54:43.049Z,3.75
2017-12-13T12:56:11.451Z,3.75
2017-12-13T12:57:38.493Z,3.74
2017-12-13T12:59:04.731Z,3.73
2017-12-13T13:00:33.266Z,3.73
2017-12-13T13:01:59.352Z,3.73
2017-12-13T13:03:26.631Z,3.74
2017-12-13T13:04:53.755Z,3.74
2017-12-13T13:06:21.084Z,3.75
2017-12-13T13:07:48.329Z,3.76
2017-12-13T13:09:15.681Z,3.78
2017-12-13T13:10:42.765Z,3.78
2017-12-13T13:12:10.057Z,3.81
2017-12-13T13:13:38.144Z,3.83
2017-12-13T13:15:04.510Z,3.86
2017-12-13T13:16:31.816Z,3.90
2017-12-13T13:17:58.979Z,3.92
2017-12-13T13:19:26.273Z,3.95
2017-12-13T13:20:54.699Z,3.95
2017-12-13T13:22:20.847Z,3.93
2017-12-13T13:23:48.170Z,3.91
2017-12-13T13:25:16.465Z,3.90
2017-12-13T13:26:42.612Z,3.90
2017-12-13T13:28:10.957Z,3.89
2017-12-13T13:29:38.210Z,3.88
2017-12-13T13:31:04.284Z,3.89
2017-12-13T13:32:31.326Z,3.90
2017-12-13T13:33:58.613Z,3.91
2017-12-13T13:35:26.842Z,3.93
2017-12-13T13:36:54.089Z,3.94
2017-12-13T13:38:21.223Z,3.93
2017-12-13T13:39:47.645Z,3.93
2017-12-13T13:41:15.920Z,3.91
2017-12-13T13:42:42.155Z,3.89
2017-12-13T13:44:09.375Z,3.87
2017-12-13T13:45:37.532Z,3.84
2017-12-13T13:47:03.688Z,3.77
2017-12-13T13:48:32.144Z,3.74
2017-12-13T13:49:58.294Z,3.72
2017-12-13T13:51:25.543Z,3.70
2017-12-13T13:52:52.824Z,3.68
2017-12-13T13:54:19.956Z,3.67
2017-12-13T13:55:47.311Z,3.65
2017-12-13T13:57:15.467Z,3.62
2017-12-13T13:58:42.345Z,3.61
2017-12-13T14:00:08.698Z,3.60
2017-12-13T14:01:36.835Z,3.57
2017-12-13T14:03:03.183Z,3.54
2017-12-13T14:04:30.233Z,3.53
2017-12-13T14:05:58.250Z,3.52
2017-12-13T14:07:25.540Z,3.50
2017-12-13T14:08:52.772Z,3.49
2017-12-13T14:10:19.060Z,3.48
2017-12-13T14:11:46.470Z,3.47
2017-12-13T14:13:14.757Z,3.45
2017-12-13T14:14:40.925Z,3.42
2017-12-13T14:16:09.152Z,3.40
2017-12-13T14:17:36.120Z,3.40
2017-12-13T14:19:02.164Z,3.40
2017-12-13T14:20:29.363Z,3.38
2017-12-13T14:21:56.661Z,3.35
2017-12-13T14:23:23.940Z,3.33
2017-12-13T14:24:51.200Z,3.33
2017-12-13T14:26:18.463Z,3.33
2017-12-13T14:27:45.616Z,3.32
2017-12-13T14:29:13.856Z,3.30
2017-12-13T14:30:41.076Z,3.30
2017-12-13T14:32:07.176Z,3.30
2017-12-13T14:33:34.368Z,3.30
2017-12-13T14:35:02.686Z,3.29
2017-12-13T14:36:29.862Z,3.28
2017-12-13T14:37:56.002Z,3.28
2017-12-13T14:39:24.224Z,3.29
2017-12-13T14:40:50.469Z,3.29
2017-12-13T14:42:17.478Z,3.28
2017-12-13T14:43:44.572Z,3.30
2017-12-13T14:45:11.689Z,3.30
2017-12-13T14:46:39.875Z,3.31
2017-12-13T14:48:05.710Z,3.32
2017-12-13T14:49:32.848Z,3.34
2017-12-13T14:51:00.059Z,3.35
2017-12-13T14:52:28.246Z,3.34
2017-12-13T14:53:54.392Z,3.34
2017-12-13T14:55:21.676Z,3.36
2017-12-13T14:56:48.769Z,3.37
2017-12-13T14:58:16.107Z,3.38
2017-12-13T14:59:43.333Z,3.40
2017-12-13T15:01:11.547Z,3.41
2017-12-13T15:02:37.722Z,3.41
2017-12-13T15:04:06.180Z,3.43
2017-12-13T15:05:32.253Z,3.46
2017-12-13T15:06:59.578Z,3.48
2017-12-13T15:08:26.835Z,3.50
2017-12-13T15:09:53.974Z,3.51
2017-12-13T15:11:22.225Z,3.53
2017-12-13T15:12:48.358Z,3.55
2017-12-13T15:14:15.619Z,3.56
2017-12-13T15:15:43.787Z,3.57
2017-12-13T15:17:10.164Z,3.58
2017-12-13T15:18:37.346Z,3.59
2017-12-13T15:20:05.619Z,3.61
2017-12-13T15:21:33.036Z,3.62
2017-12-13T15:22:59.177Z,3.62
2017-12-13T15:24:27.412Z,3.63
2017-12-13T15:25:54.706Z,3.63
2017-12-13T15:27:20.952Z,3.63
2017-12-13T15:28:48.254Z,3.63
2017-12-13T15:30:15.549Z,3.64
2017-12-13T15:31:42.597Z,3.64
2017-12-13T15:33:09.727Z,3.63
2017-12-13T15:34:36.889Z,3.60
2017-12-13T15:36:04.951Z,3.56
2017-12-13T15:37:32.167Z,3.53
2017-12-13T15:38:58.410Z,3.51
2017-12-13T15:40:25.343Z,3.48
2017-12-13T15:41:53.863Z,3.45
2017-12-13T15:43:20.946Z,3.44
2017-12-13T15:44:47.037Z,3.41
2017-12-13T15:46:15.197Z,3.38
2017-12-13T15:47:41.159Z,3.37
2017-12-13T15:49:09.411Z,3.36
2017-12-13T15:50:36.425Z,3.36
2017-12-13T15:52:03.657Z,3.36
2017-12-13T15:53:30.857Z,3.36
2017-12-13T15:54:57.037Z,3.36
2017-12-13T15:56:25.189Z,3.35
2017-12-13T15:57:51.519Z,3.36
2017-12-13T15:59:18.765Z,3.35
2017-12-13T16:00:46.105Z,3.35
2017-12-13T16:02:13.343Z,3.35
2017-12-13T16:03:40.556Z,3.36
2017-12-13T16:05:07.579Z,3.36
2017-12-13T16:06:35.814Z,3.36
2017-12-13T16:08:03.050Z,3.36
2017-12-13T16:09:29.968Z,3.37
2017-12-13T16:10:57.049Z,3.36
2017-12-13T16:12:23.431Z,3.36
2017-12-13T16:13:50.825Z,3.36
2017-12-13T16:15:18.175Z,3.36
2017-12-13T16:16:46.423Z,3.36
2017-12-13T16:18:13.552Z,3.35
2017-12-13T16:19:40.788Z,3.34
2017-12-13T16:21:06.847Z,3.34
2017-12-13T16:22:34.166Z,3.34
2017-12-13T16:24:01.372Z,3.34
2017-12-13T16:25:29.708Z,3.34
2017-12-13T16:26:56.963Z,3.33
2017-12-13T16:28:24.209Z,3.32
2017-12-13T16:29:50.382Z,3.32
2017-12-13T16:31:17.563Z,3.31
2017-12-13T16:32:45.916Z,3.30
2017-12-13T16:34:12.108Z,3.31
2017-12-13T16:35:39.327Z,3.31
2017-12-13T16:37:06.525Z,3.30
2017-12-13T16:38:34.810Z,3.31
2017-12-13T16:40:01.022Z,3.30
2017-12-13T16:41:28.254Z,3.29
2017-12-13T16:42:55.411Z,3.27
2017-12-13T16:44:23.691Z,3.28
2017-12-13T16:45:50.061Z,3.29
2017-12-13T16:47:18.271Z,3.29
2017-12-13T16:48:44.491Z,3.29
2017-12-13T16:50:12.766Z,3.29
2017-12-13T16:51:39.707Z,3.28
2017-12-13T16:53:05.839Z,3.27
2017-12-13T16:54:34.070Z,3.27
2017-12-13T16:56:00.440Z,3.28
2017-12-13T16:57:28.592Z,3.27
2017-12-13T16:58:54.838Z,3.25
2017-12-13T17:00:22.099Z,3.25
2017-12-13T17:01:50.488Z,3.22
2017-12-13T17:03:16.591Z,3.20
2017-12-13T17:04:43.956Z,3.20
2017-12-13T17:06:12.110Z,3.20
2017-12-13T17:07:39.223Z,3.19
2017-12-13T17:09:05.444Z,3.18
2017-12-13T17:10:32.767Z,3.16
2017-12-13T17:11:59.970Z,3.15
2017-12-13T17:13:27.363Z,3.13
2017-12-13T17:14:54.265Z,3.11
2017-12-13T17:16:21.507Z,3.08
2017-12-13T17:17:48.707Z,3.05
2017-12-13T17:19:16.008Z,3.03
2017-12-13T17:20:43.069Z,3.02
2017-12-13T17:22:11.378Z,3.01
2017-12-13T17:23:37.580Z,3.00
2017-12-13T17:25:04.809Z,2.99
2017-12-13T17:26:31.991Z,3.00
2017-12-13T17:28:00.263Z,2.98
2017-12-13T17:29:27.543Z,2.97
2017-12-13T17:30:53.743Z,2.96
2017-12-13T17:32:21.948Z,2.95
2017-12-13T17:33:48.052Z,2.94
2017-12-13T17:35:16.178Z,2.93
2017-12-13T17:36:42.151Z,2.92
2017-12-13T17:38:09.257Z,2.92
2017-12-13T17:39:37.678Z,2.92
2017-12-13T17:41:04.583Z,2.92
2017-12-13T17:42:31.745Z,2.92
2017-12-13T17:43:59.004Z,2.93
2017-12-13T17:45:26.233Z,2.93
2017-12-13T17:46:52.512Z,2.93
2017-12-13T17:48:19.805Z,2.92
2017-12-13T17:49:47.068Z,2.92
2017-12-13T17:51:14.380Z,2.93
2017-12-13T17:52:41.441Z,2.93
2017-12-13T17:54:08.754Z,2.93
2017-12-13T17:55:35.876Z,2.94
2017-12-13T17:57:03.922Z,2.94
2017-12-13T17:58:30.245Z,2.93
2017-12-13T17:59:57.187Z,2.93
2017-12-13T18:01:25.373Z,2.93
2017-12-13T18:02:51.645Z,2.94
2017-12-13T18:04:18.725Z,2.95
2017-12-13T18:05:45.943Z,2.96
2017-12-13T18:07:14.200Z,2.97
2017-12-13T18:08:40.243Z,2.96
2017-12-13T18:10:08.435Z,2.97
2017-12-13T18:11:35.650Z,2.96
2017-12-13T18:13:02.026Z,2.96
2017-12-13T18:14:29.395Z,2.97
2017-12-13T18:15:57.579Z,2.97
2017-12-13T18:17:23.851Z,2.96
2017-12-13T18:18:51.057Z,2.96
2017-12-13T18:20:19.292Z,2.95
2017-12-13T18:21:46.451Z,2.95
2017-12-13T18:23:12.701Z,2.95
2017-12-13T18:24:39.952Z,2.97
2017-12-13T18:26:07.241Z,2.95
2017-12-13T18:27:35.395Z,2.95
2017-12-13T18:29:02.452Z,2.96
2017-12-13T18:30:29.814Z,2.96
2017-12-13T18:31:57.109Z,2.96
2017-12-13T18:33:23.297Z,2.97
2017-12-13T18:34:50.685Z,2.97
2017-12-13T18:36:18.686Z,2.97
2017-12-13T18:37:45.874Z,2.96
2017-12-13T18:39:13.093Z,2.96
2017-12-13T18:40:39.226Z,2.98
2017-12-13T18:42:06.425Z,2.98
2017-12-13T18:43:33.539Z,2.99
2017-12-13T18:45:00.798Z,2.99
2017-12-13T18:46:28.057Z,3.00
2017-12-13T18:47:56.254Z,3.01
2017-12-13T18:49:23.532Z,3.02
2017-12-13T18:50:49.678Z,3.02
2017-12-13T18:52:16.917Z,3.02
2017-12-13T18:53:44.163Z,3.02
2017-12-13T18:55:11.416Z,3.03
2017-12-13T18:56:38.567Z,3.05
2017-12-13T18:58:06.651Z,3.06
2017-12-13T18:59:33.902Z,3.06
2017-12-13T19:02:28.320Z,3.04
2017-12-13T19:03:54.567Z,3.03
2017-12-13T19:05:22.814Z,3.02
2017-12-13T19:06:49.085Z,3.01
2017-12-13T19:08:16.366Z,3.00
2017-12-13T19:09:44.708Z,3.02
2017-12-13T19:11:11.790Z,3.04
2017-12-13T19:12:39.084Z,3.03
2017-12-13T19:14:05.285Z,3.04
2017-12-13T19:15:32.457Z,3.04
2017-12-13T19:16:59.829Z,3.05
2017-12-13T19:18:27.009Z,3.05
2017-12-13T19:19:54.505Z,3.06
2017-12-13T19:21:21.735Z,3.07
2017-12-13T19:22:49.942Z,3.05
2017-12-13T19:24:16.199Z,3.06